Hauptseite
METAR-TAF:

METAR-TAF

Flughäfen :

Carlisle, England

Breite: 54-56-15N, Länge: 002-48-33W, Höhe: 57 m

Beobachtung

Neuester Wetterbericht von vor 30 Minuten, um 14:50 UTC
Wind 8 kt aus Süd, variierte zwischen Südost und Südwest
Temperatur 19°C
Luftfeuchtigkeit 46%
Luftdruck 1015 hPa
Sichtweite 10 km oder mehr
Leicht bewölkt in der Höhe von 2500 ft

METAR: EGNC 211450Z 18008KT 130V220 9999 FEW025 19/07 Q1015

Zeit: 16:20 (15:20 UTC)

Prognose

Neuester Wetterbericht von vor 1 Stunde und 24 Minuten, um 13:56 UTC
Gültige Prognose vom 21 um 15 UTC bis 21 um 17 UTC
Wind 6 kt aus Süd
Sichtweite 10 km oder mehr
Leicht bewölkt in der Höhe von 3000 ft

TAF: EGNC 211356Z 2115/2117 18006KT 9999 FEW030

Wetterbeobachtungen und Prognosen von mehr als 4000 Flughäfen (METAR und TAF Bericht).

Die verfügbaren Stationen werden durch gelbe und rote Markierungen auf der Karte dargestellt.

Führen Sie die Maus auf sie, um den Namen der Station zu sehen.

Darauf klicken, um die Beobachtung von Wetterbeobachtungen und Prognosen zu sehen.

Um die Karte zu ändern : klicken Sie auf den grünen Tasten mit einem schwarzen Kreuz Zum Vergrößern, auf den grünen Button mit einem Gedankenstrich zu verkleinern, oder auf die grünen Pfeile für benachbarte Karten.


METAR-TAF: